createdAt,value
2018-05-15T06:32:02.971Z,51.50
2018-05-15T06:37:04.276Z,51.30
2018-05-15T06:42:05.607Z,51.20
2018-05-15T06:47:06.894Z,51.10
2018-05-15T06:52:08.208Z,51.10
2018-05-15T06:57:09.509Z,51.00
2018-05-15T07:02:10.783Z,51.00
2018-05-15T07:07:12.076Z,50.90
2018-05-15T07:12:14.083Z,50.90
2018-05-15T07:17:15.380Z,50.90
2018-05-15T07:22:16.655Z,50.80
2018-05-15T07:27:18.729Z,50.70
2018-05-15T07:32:19.995Z,50.70
2018-05-15T07:37:21.284Z,50.70
2018-05-15T07:42:22.575Z,50.60
2018-05-15T07:47:23.873Z,50.60
2018-05-15T07:52:25.171Z,50.50
2018-05-15T07:57:26.472Z,50.50
2018-05-15T08:02:27.764Z,50.40
2018-05-15T08:07:29.067Z,50.30
2018-05-15T08:12:30.535Z,50.20
2018-05-15T08:17:31.832Z,50.20
2018-05-15T08:22:34.176Z,50.20
2018-05-15T08:27:35.436Z,50.10
2018-05-15T08:32:36.761Z,50.10
2018-05-15T08:37:38.097Z,50.10
2018-05-15T08:42:39.374Z,50.00
2018-05-15T08:47:40.691Z,50.00
2018-05-15T08:52:41.993Z,50.00
2018-05-15T08:57:43.322Z,50.00
2018-05-15T09:02:44.655Z,50.00
2018-05-15T09:07:45.990Z,50.00
2018-05-15T09:12:48.242Z,49.90
2018-05-15T09:17:49.572Z,50.00
2018-05-15T09:22:50.907Z,50.00
2018-05-15T09:27:52.215Z,49.90
2018-05-15T09:32:53.505Z,49.80
2018-05-15T09:37:54.862Z,49.80
2018-05-15T09:42:56.099Z,49.70
2018-05-15T09:47:57.425Z,49.70
2018-05-15T09:52:58.719Z,49.70
2018-05-15T09:58:00.015Z,49.70
2018-05-15T10:03:01.329Z,49.70
2018-05-15T10:08:02.668Z,49.60
2018-05-15T10:13:03.980Z,49.70
2018-05-15T10:18:05.273Z,49.60
2018-05-15T10:23:07.334Z,49.60
2018-05-15T10:28:08.644Z,49.60
2018-05-15T10:33:10.687Z,49.70
2018-05-15T10:38:14.144Z,49.70
2018-05-15T10:43:15.624Z,49.60
2018-05-15T10:48:16.935Z,49.60
2018-05-15T10:53:19.214Z,49.70
2018-05-15T10:58:20.510Z,49.70
2018-05-15T11:03:21.834Z,49.70
2018-05-15T11:08:23.176Z,50.30
2018-05-15T11:13:24.518Z,49.40
2018-05-15T11:18:42.778Z,49.40
2018-05-15T11:23:51.125Z,49.40
2018-05-15T11:28:52.464Z,48.80
2018-05-15T11:33:53.791Z,48.50
2018-05-15T11:38:55.098Z,49.40
2018-05-15T11:43:57.148Z,48.40
2018-05-15T11:48:59.266Z,48.40
2018-05-15T11:54:00.306Z,48.40
2018-05-15T11:59:01.513Z,48.90
2018-05-15T12:04:03.014Z,48.80
2018-05-15T12:09:05.057Z,48.90
2018-05-15T12:14:06.390Z,48.90
2018-05-15T12:19:08.448Z,48.80
2018-05-15T12:24:09.764Z,48.60
2018-05-15T12:29:11.092Z,48.60
2018-05-15T12:34:12.414Z,48.10
2018-05-15T12:39:13.728Z,48.30
2018-05-15T12:44:15.769Z,48.40
2018-05-15T12:49:17.077Z,48.30
2018-05-15T12:54:19.116Z,48.20
2018-05-15T12:59:20.443Z,48.20
2018-05-15T13:04:21.746Z,48.10
2018-05-15T13:09:23.107Z,48.10
2018-05-15T13:14:24.410Z,48.10
2018-05-15T13:19:25.715Z,48.00
2018-05-15T13:24:27.903Z,47.90
2018-05-15T13:29:29.160Z,47.80
2018-05-15T13:34:30.444Z,47.60
2018-05-15T13:39:33.353Z,47.60
2018-05-15T13:44:34.648Z,47.50
2018-05-15T13:49:35.974Z,47.50
2018-05-15T13:54:37.280Z,47.40
2018-05-15T13:59:38.626Z,47.40
2018-05-15T14:04:39.954Z,47.20
2018-05-15T14:09:41.297Z,46.00
2018-05-15T14:14:44.029Z,46.00
2018-05-15T14:19:45.328Z,45.90
2018-05-15T14:24:46.679Z,45.00
2018-05-15T14:29:48.011Z,44.60
2018-05-15T14:34:49.325Z,44.40
2018-05-15T14:39:50.611Z,45.00
2018-05-15T14:44:51.921Z,45.50
2018-05-15T14:49:53.245Z,46.20
2018-05-15T14:54:55.317Z,46.50
2018-05-15T14:59:56.591Z,46.40
2018-05-15T15:04:58.716Z,47.20
2018-05-15T15:10:00.053Z,46.40
2018-05-15T15:15:01.355Z,46.60
2018-05-15T15:20:02.673Z,46.70
2018-05-15T15:25:04.709Z,46.60
2018-05-15T15:30:06.016Z,46.60
2018-05-15T15:35:08.344Z,44.30
2018-05-15T15:40:09.597Z,44.30
2018-05-15T15:45:10.896Z,46.00
2018-05-15T15:50:12.209Z,46.20
2018-05-15T15:55:13.600Z,46.50
2018-05-15T16:00:14.829Z,46.60
2018-05-15T16:05:16.876Z,46.80
2018-05-15T16:10:18.177Z,46.80
2018-05-15T16:15:20.235Z,46.90
2018-05-15T16:20:21.545Z,46.90
2018-05-15T16:25:22.910Z,47.00
2018-05-15T16:30:24.207Z,46.40
2018-05-15T16:35:26.279Z,46.70
2018-05-15T16:40:27.588Z,47.30
2018-05-15T16:45:29.619Z,46.60
2018-05-15T16:50:30.913Z,46.60
2018-05-15T16:55:32.223Z,45.90
2018-05-15T17:00:33.535Z,46.10
2018-05-15T17:05:34.855Z,44.80
2018-05-15T17:10:36.172Z,44.70
2018-05-15T17:15:37.483Z,45.50
2018-05-15T17:20:38.800Z,45.90
2018-05-15T17:25:40.091Z,45.20
2018-05-15T17:30:42.247Z,44.70
2018-05-15T17:35:44.081Z,44.60
2018-05-15T17:40:46.118Z,45.20
2018-05-15T17:45:47.355Z,45.60
2018-05-15T17:50:48.667Z,45.70
2018-05-15T17:55:50.703Z,45.50
2018-05-15T18:00:52.790Z,46.10
2018-05-15T18:05:54.105Z,45.90
2018-05-15T18:10:55.443Z,46.40
2018-05-15T18:15:57.523Z,46.70
2018-05-15T18:20:58.867Z,46.70
2018-05-15T18:26:00.168Z,46.70
2018-05-15T18:31:01.501Z,46.90
2018-05-15T18:36:03.619Z,46.90
2018-05-15T18:41:04.950Z,47.10
2018-05-15T18:46:06.291Z,47.20
2018-05-15T18:51:07.596Z,46.90
2018-05-15T18:56:08.909Z,47.30
2018-05-15T19:01:10.248Z,47.30
2018-05-15T19:06:11.591Z,47.40
2018-05-15T19:11:18.824Z,47.50
2018-05-15T19:16:20.157Z,47.60
2018-05-15T19:21:21.453Z,47.70
2018-05-15T19:26:22.751Z,47.70
2018-05-15T19:31:30.116Z,47.70
2018-05-15T19:36:32.186Z,47.80
2018-05-15T19:41:33.841Z,47.80
2018-05-15T19:46:35.891Z,48.20
2018-05-15T19:51:37.191Z,47.80
2018-05-15T19:56:38.539Z,47.80
2018-05-15T20:01:39.888Z,47.90
2018-05-15T20:06:41.235Z,48.00
2018-05-15T20:11:42.557Z,48.00
2018-05-15T20:16:43.854Z,48.00
2018-05-15T20:21:45.192Z,47.60
2018-05-15T20:26:47.773Z,48.10
2018-05-15T20:31:49.088Z,48.10
2018-05-15T20:36:50.765Z,48.30
2018-05-15T20:41:52.909Z,48.40
2018-05-15T20:46:54.230Z,48.30
2018-05-15T20:51:55.609Z,48.30
2018-05-15T20:56:56.924Z,48.30
2018-05-15T21:01:58.246Z,48.40
2018-05-15T21:06:59.557Z,48.50
2018-05-15T21:12:00.868Z,48.40
2018-05-15T21:17:02.191Z,48.40
2018-05-15T21:22:03.515Z,48.30
2018-05-15T21:27:04.827Z,48.30
2018-05-15T21:32:06.144Z,48.20
2018-05-15T21:37:07.447Z,48.20
2018-05-15T21:42:08.748Z,48.20
2018-05-15T21:47:10.053Z,48.10
2018-05-15T21:52:12.112Z,48.20
2018-05-15T21:57:13.435Z,48.20
2018-05-15T22:02:14.744Z,48.20
2018-05-15T22:07:16.075Z,48.20
2018-05-15T22:12:29.534Z,48.80
2018-05-15T22:17:49.176Z,48.20
2018-05-15T22:22:57.193Z,48.30
2018-05-15T22:27:58.560Z,48.30
2018-05-15T22:32:59.895Z,48.20
2018-05-15T22:38:01.240Z,48.20
